Time;durP1;ratioP1;P1;durP2;ratioP2;P2;SDS_P1;SDS_P2;PMS_P1;PMS_P2;Temp;Humidity;BMP_temperature;BMP_pressure;BME280_temperature;BME280_humidity;BME280_pressure;Samples;Min_cycle;Max_cycle;Signal;HPM_P1;HPM_P2
2023/10/20 00:00:22;;;;;;;;;;;;;;;;;;6306261;28;19928;-88
2023/10/20 00:03:22;;;;;;;;;;;;;;;;;;6303336;28;19927;-88
2023/10/20 00:06:22;;;;;;;;;;;;;;;;;;6332098;28;19912;-88
2023/10/20 00:09:23;;;;;;;;;;;;;;;;;;6314317;28;19917;-88
2023/10/20 00:12:23;;;;;;;;;;;;;;;;;;6322695;28;19996;-88
2023/10/20 00:15:23;;;;;;;;;;;;;;;;;;6320325;28;20370;-88
2023/10/20 00:18:23;;;;;;;;;;;;;;;;;;6306099;28;20002;-84
2023/10/20 00:21:26;;;;;;;;;;;;;;;;;;6324131;28;19912;-84
2023/10/20 00:24:26;;;;;;;;;;;;;;;;;;6314398;28;20362;-84
2023/10/20 00:27:27;;;;;;;;;;;;;;;;;;6332863;28;19951;-84
2023/10/20 00:30:27;;;;;;;;;;;;;;;;;;6311559;27;19995;-84
2023/10/20 00:33:27;;;;;;;;;;;;;;;;;;6319354;28;20409;-84
2023/10/20 00:36:27;;;;;;;;;;;;;;;;;;6314574;28;19912;-84
2023/10/20 00:39:29;;;;;;;;;;;;;;;;;;6300812;28;20397;-84
2023/10/20 00:42:30;;;;;;;;;;;;;;;;;;6301048;28;20275;-84
2023/10/20 00:45:31;;;;;;;;;;;;;;;;;;6331885;27;19948;-84
2023/10/20 00:48:31;;;;;;;;;;;;;;;;;;6316917;27;20357;-84
2023/10/20 00:51:31;;;;;;;;;;;;;;;;;;6330049;27;19982;-84
2023/10/20 00:54:32;;;;;;;;;;;;;;;;;;6332936;27;20279;-84
2023/10/20 00:57:32;;;;;;;;;;;;;;;;;;6324664;28;20019;-84
2023/10/20 01:00:32;;;;;;;;;;;;;;;;;;6324923;28;19931;-83
2023/10/20 01:03:33;;;;;;;;;;;;;;;;;;6322933;28;20421;-84
2023/10/20 01:06:34;;;;;;;;;;;;;;;;;;6330227;28;19935;-84
2023/10/20 01:09:34;;;;;;;;;;;;;;;;;;6310899;28;19918;-83
2023/10/20 01:12:34;;;;;;;;;;;;;;;;;;6325044;28;19958;-83
2023/10/20 01:15:34;;;;;;;;;;;;;;;;;;6322516;28;19946;-82
2023/10/20 01:18:34;;;;;;;;;;;;;;;;;;6323901;28;19991;-83
2023/10/20 01:21:35;;;;;;;;;;;;;;;;;;6329223;28;19908;-83
2023/10/20 01:24:35;;;;;;;;;;;;;;;;;;6303182;28;19923;-83
2023/10/20 01:27:35;;;;;;;;;;;;;;;;;;6306030;28;20484;-83
2023/10/20 01:30:35;;;;;;;;;;;;;;;;;;6314718;28;20389;-83
2023/10/20 01:33:35;;;;;;;;;;;;;;;;;;6322135;28;19951;-83
2023/10/20 01:36:37;;;;;;;;;;;;;;;;;;6317914;28;20002;-83
2023/10/20 01:39:37;;;;;;;;;;;;;;;;;;6325138;28;19908;-84
2023/10/20 01:42:37;;;;;;;;;;;;;;;;;;6318857;28;19920;-82
2023/10/20 01:45:37;;;;;;;;;;;;;;;;;;6313270;28;19914;-82
2023/10/20 01:48:37;;;;;;;;;;;;;;;;;;6326706;28;20310;-83
2023/10/20 01:51:37;;;;;;;;;;;;;;;;;;6330342;28;19960;-84
2023/10/20 01:54:37;;;;;;;;;;;;;;;;;;6305038;28;19942;-84
2023/10/20 01:57:37;;;;;;;;;;;;;;;;;;6321824;28;19989;-83
2023/10/20 02:00:38;;;;;;;;;;;;;;;;;;6313257;28;19959;-84
2023/10/20 02:03:38;;;;;;;;;;;;;;;;;;6309951;28;20006;-83
2023/10/20 02:06:38;;;;;;;;;;;;;;;;;;6323078;28;20026;-84
2023/10/20 02:09:38;;;;;;;;;;;;;;;;;;6316910;28;20007;-84
2023/10/20 02:12:42;;;;;;;;;;;;;;;;;;6305129;28;20075;-83
2023/10/20 02:15:42;;;;;;;;;;;;;;;;;;6303685;28;19923;-83
2023/10/20 02:18:42;;;;;;;;;;;;;;;;;;6304118;28;19923;-84
2023/10/20 02:21:43;;;;;;;;;;;;;;;;;;6319720;28;19916;-84
2023/10/20 02:24:43;;;;;;;;;;;;;;;;;;6304696;28;20469;-84
2023/10/20 02:27:43;;;;;;;;;;;;;;;;;;6317860;28;20612;-84
2023/10/20 02:30:43;;;;;;;;;;;;;;;;;;6325507;28;20299;-84
2023/10/20 02:33:44;;;;;;;;;;;;;;;;;;6339720;28;19912;-84
2023/10/20 02:36:44;;;;;;;;;;;;;;;;;;6315710;28;19976;-87
2023/10/20 02:39:44;;;;;;;;;;;;;;;;;;6326991;28;19912;-84
2023/10/20 02:42:44;;;;;;;;;;;;;;;;;;6342017;28;19923;-84
2023/10/20 02:45:44;;;;;;;;;;;;;;;;;;6327038;27;20003;-84
2023/10/20 02:48:44;;;;;;;;;;;;;;;;;;6332551;28;20332;-84
2023/10/20 02:51:45;;;;;;;;;;;;;;;;;;6333421;28;19908;-84
2023/10/20 02:54:46;;;;;;;;;;;;;;;;;;6313026;28;19916;-84
2023/10/20 02:57:46;;;;;;;;;;;;;;;;;;6303534;28;19974;-84
2023/10/20 03:00:50;;;;;;;;;;;;;;;;;;6338541;28;20343;-84
2023/10/20 03:03:50;;;;;;;;;;;;;;;;;;6311535;28;20395;-84
2023/10/20 03:06:50;;;;;;;;;;;;;;;;;;6343801;28;19912;-84
2023/10/20 03:09:50;;;;;;;;;;;;;;;;;;6329036;28;20286;-83
2023/10/20 03:12:50;;;;;;;;;;;;;;;;;;6316306;28;19911;-84
2023/10/20 03:15:51;;;;;;;;;;;;;;;;;;6315666;28;19981;-84
2023/10/20 03:18:51;;;;;;;;;;;;;;;;;;6310635;28;20332;-84
2023/10/20 03:21:52;;;;;;;;;;;;;;;;;;6325078;28;19921;-84
2023/10/20 03:24:52;;;;;;;;;;;;;;;;;;6312462;28;19916;-84
2023/10/20 03:27:52;;;;;;;;;;;;;;;;;;6311328;28;19916;-84
2023/10/20 03:30:53;;;;;;;;;;;;;;;;;;6307658;28;19959;-84
2023/10/20 03:33:53;;;;;;;;;;;;;;;;;;6344868;28;19912;-84
2023/10/20 03:36:53;;;;;;;;;;;;;;;;;;6323857;28;19911;-84
2023/10/20 03:39:53;;;;;;;;;;;;;;;;;;6328663;28;19919;-84
2023/10/20 03:42:53;;;;;;;;;;;;;;;;;;6321642;28;19939;-84
2023/10/20 03:45:56;;;;;;;;;;;;;;;;;;6328354;28;19957;-84
2023/10/20 03:48:57;;;;;;;;;;;;;;;;;;6310944;28;20267;-88
2023/10/20 03:51:57;;;;;;;;;;;;;;;;;;6327763;28;19912;-89
2023/10/20 03:54:57;;;;;;;;;;;;;;;;;;6326889;28;19938;-88
2023/10/20 03:57:57;;;;;;;;;;;;;;;;;;6306504;28;19950;-88
2023/10/20 04:00:57;;;;;;;;;;;;;;;;;;6312253;28;19924;-88
2023/10/20 04:03:57;;;;;;;;;;;;;;;;;;6332693;28;19916;-88
2023/10/20 04:06:58;;;;;;;;;;;;;;;;;;6326619;28;19916;-88
2023/10/20 04:09:59;;;;;;;;;;;;;;;;;;6320438;28;20564;-88
2023/10/20 04:13:01;;;;;;;;;;;;;;;;;;6319196;28;19919;-88
2023/10/20 04:16:03;;;;;;;;;;;;;;;;;;6322804;28;19917;-89
2023/10/20 04:19:09;;;;;;;;;;;;;;;;;;6330357;28;20376;-89
2023/10/20 04:22:13;;;;;;;;;;;;;;;;;;6341406;28;20007;-89
2023/10/20 04:25:15;;;;;;;;;;;;;;;;;;6335947;28;20058;-89
2023/10/20 04:28:18;;;;;;;;;;;;;;;;;;6326445;27;19951;-89
2023/10/20 04:48:31;;;;;;;;;;;;;;;;;;6321613;28;20247;-89
2023/10/20 04:54:22;;;;;;;;;;;;;;;;;;6329349;27;19912;-89
2023/10/20 05:03:31;;;;;;;;;;;;;;;;;;6339591;28;19920;-89
2023/10/20 05:07:16;;;;;;;;;;;;;;;;;;6319867;28;20327;-89
2023/10/20 05:09:54;;;;;;;;;;;;;;;;;;6320697;28;20260;-89
2023/10/20 05:12:55;;;;;;;;;;;;;;;;;;6338803;28;19927;-89
2023/10/20 05:15:55;;;;;;;;;;;;;;;;;;6318654;28;19916;-89
2023/10/20 05:18:55;;;;;;;;;;;;;;;;;;6317139;28;19915;-85
2023/10/20 05:21:55;;;;;;;;;;;;;;;;;;6325446;28;19912;-85
2023/10/20 05:24:55;;;;;;;;;;;;;;;;;;6326892;28;19920;-86
2023/10/20 05:27:56;;;;;;;;;;;;;;;;;;6308610;28;19988;-84
2023/10/20 05:30:56;;;;;;;;;;;;;;;;;;6309645;28;19915;-85
2023/10/20 05:33:56;;;;;;;;;;;;;;;;;;6336692;28;20028;-85
2023/10/20 05:36:56;;;;;;;;;;;;;;;;;;6323612;28;19979;-85
2023/10/20 05:39:56;;;;;;;;;;;;;;;;;;6333122;28;19915;-85
2023/10/20 05:42:56;;;;;;;;;;;;;;;;;;6326600;28;19947;-85
2023/10/20 05:45:56;;;;;;;;;;;;;;;;;;6331629;28;19916;-85
2023/10/20 05:48:56;;;;;;;;;;;;;;;;;;6344448;28;19916;-85
2023/10/20 05:51:57;;;;;;;;;;;;;;;;;;6324000;27;19935;-85
2023/10/20 05:54:59;;;;;;;;;;;;;;;;;;6323020;28;20007;-86
2023/10/20 05:57:59;;;;;;;;;;;;;;;;;;6342373;28;19968;-85
2023/10/20 06:00:59;;;;;;;;;;;;;;;;;;6337419;28;20429;-86
2023/10/20 06:03:59;;;;;;;;;;;;;;;;;;6323587;28;19999;-85
2023/10/20 06:06:59;;;;;;;;;;;;;;;;;;6323489;28;20392;-85
2023/10/20 06:10:00;;;;;;;;;;;;;;;;;;6338624;28;19912;-85
2023/10/20 06:13:00;;;;;;;;;;;;;;;;;;6355729;28;20266;-84
2023/10/20 06:16:00;;;;;;;;;;;;;;;;;;6344863;28;19915;-84
2023/10/20 06:19:00;;;;;;;;;;;;;;;;;;6356237;28;19958;-85
2023/10/20 06:22:00;;;;;;;;;;;;;;;;;;6356244;28;19915;-86
2023/10/20 06:25:00;;;;;;;;;;;;;;;;;;6334650;28;20003;-84
2023/10/20 06:28:00;;;;;;;;;;;;;;;;;;6343426;28;19915;-86
2023/10/20 06:31:05;;;;;;;;;;;;;;;;;;6319181;28;19966;-86
2023/10/20 06:37:24;;;;;;;;;;;;;;;;;;6331857;28;19916;-86
2023/10/20 06:40:24;;;;;;;;;;;;;;;;;;6321651;28;19918;-86
2023/10/20 06:43:24;;;;;;;;;;;;;;;;;;6316711;28;19920;-86
2023/10/20 06:46:24;;;;;;;;;;;;;;;;;;6344841;28;19919;-85
2023/10/20 06:49:25;;;;;;;;;;;;;;;;;;6340082;28;20084;-85
2023/10/20 06:52:25;;;;;;;;;;;;;;;;;;6323747;27;19939;-85
2023/10/20 06:55:25;;;;;;;;;;;;;;;;;;6334212;28;19912;-85
2023/10/20 06:58:26;;;;;;;;;;;;;;;;;;6335158;28;19937;-86
2023/10/20 07:01:26;;;;;;;;;;;;;;;;;;6321797;28;19931;-85
2023/10/20 07:04:27;;;;;;;;;;;;;;;;;;6337697;28;19920;-85
2023/10/20 07:07:27;;;;;;;;;;;;;;;;;;6318723;28;20483;-85
2023/10/20 07:10:27;;;;;;;;;;;;;;;;;;6312001;28;20374;-85
2023/10/20 07:13:27;;;;;;;;;;;;;;;;;;6314745;28;20283;-85
2023/10/20 07:16:28;;;;;;;;;;;;;;;;;;6334015;28;20006;-86
2023/10/20 07:19:28;;;;;;;;;;;;;;;;;;6336454;28;19939;-91
2023/10/20 07:22:28;;;;;;;;;;;;;;;;;;6339288;28;20332;-91
2023/10/20 07:25:28;;;;;;;;;;;;;;;;;;6307886;28;19919;-91
2023/10/20 07:28:28;;;;;;;;;;;;;;;;;;6342174;27;19912;-91
2023/10/20 07:31:28;;;;;;;;;;;;;;;;;;6311620;28;19912;-91
2023/10/20 07:34:28;;;;;;;;;;;;;;;;;;6332216;28;19959;-91
2023/10/20 07:37:29;;;;;;;;;;;;;;;;;;6317536;28;19998;-85
2023/10/20 07:40:34;;;;;;;;;;;;;;;;;;6312771;28;19916;-85
2023/10/20 07:43:34;;;;;;;;;;;;;;;;;;6325373;28;19999;-85
2023/10/20 07:46:35;;;;;;;;;;;;;;;;;;6334068;28;20281;-85
2023/10/20 07:49:35;;;;;;;;;;;;;;;;;;6316891;28;19912;-85
2023/10/20 07:52:35;;;;;;;;;;;;;;;;;;6334083;28;20338;-85
2023/10/20 07:55:36;;;;;;;;;;;;;;;;;;6328282;28;20403;-85
2023/10/20 07:58:36;;;;;;;;;;;;;;;;;;6330238;28;19951;-86
2023/10/20 08:01:37;;;;;;;;;;;;;;;;;;6311118;28;19924;-86
2023/10/20 08:04:37;;;;;;;;;;;;;;;;;;6330234;28;19947;-85
2023/10/20 08:07:39;;;;;;;;;;;;;;;;;;6336063;28;19918;-86
2023/10/20 08:10:39;;;;;;;;;;;;;;;;;;6310600;28;19918;-86
2023/10/20 08:13:39;;;;;;;;;;;;;;;;;;6316064;28;19916;-86
2023/10/20 08:16:39;;;;;;;;;;;;;;;;;;6323673;28;20336;-86
2023/10/20 08:19:39;;;;;;;;;;;;;;;;;;6314485;28;19911;-86
2023/10/20 08:22:40;;;;;;;;;;;;;;;;;;6305111;28;19935;-85
2023/10/20 08:25:40;;;;;;;;;;;;;;;;;;6325354;28;20335;-85
2023/10/20 08:28:41;;;;;;;;;;;;;;;;;;6308432;28;19916;-88
2023/10/20 08:31:41;;;;;;;;;;;;;;;;;;6335306;27;19920;-88
2023/10/20 08:34:41;;;;;;;;;;;;;;;;;;6323473;28;19946;-88
2023/10/20 08:37:41;;;;;;;;;;;;;;;;;;6338385;28;19925;-86
2023/10/20 08:40:41;;;;;;;;;;;;;;;;;;6326890;27;19919;-89
2023/10/20 08:43:41;;;;;;;;;;;;;;;;;;6311891;28;19982;-88
2023/10/20 08:46:42;;;;;;;;;;;;;;;;;;6329654;27;19947;-86
2023/10/20 08:49:42;;;;;;;;;;;;;;;;;;6335282;27;19923;-88
2023/10/20 08:52:44;;;;;;;;;;;;;;;;;;6325467;28;19912;-89
2023/10/20 08:55:44;;;;;;;;;;;;;;;;;;6315689;28;19908;-89
2023/10/20 08:58:44;;;;;;;;;;;;;;;;;;6319776;28;19985;-88
2023/10/20 09:01:47;;;;;;;;;;;;;;;;;;6320291;28;19928;-88
2023/10/20 09:04:47;;;;;;;;;;;;;;;;;;6317697;28;19916;-88
2023/10/20 09:07:47;;;;;;;;;;;;;;;;;;6326662;28;19911;-89
2023/10/20 09:10:47;;;;;;;;;;;;;;;;;;6323694;28;19912;-89
2023/10/20 09:13:47;;;;;;;;;;;;;;;;;;6326916;28;19950;-88
2023/10/20 09:16:48;;;;;;;;;;;;;;;;;;6309311;28;19908;-88
2023/10/20 09:19:48;;;;;;;;;;;;;;;;;;6321899;28;19916;-89
2023/10/20 09:22:48;;;;;;;;;;;;;;;;;;6312325;28;19918;-89
2023/10/20 09:25:48;;;;;;;;;;;;;;;;;;6308286;28;20076;-88
2023/10/20 09:28:48;;;;;;;;;;;;;;;;;;6335815;27;19969;-87
2023/10/20 09:31:48;;;;;;;;;;;;;;;;;;6335243;28;19961;-88
2023/10/20 09:34:48;;;;;;;;;;;;;;;;;;6323605;28;19908;-88
2023/10/20 09:37:48;;;;;;;;;;;;;;;;;;6329101;28;19908;-85
2023/10/20 09:40:49;;;;;;;;;;;;;;;;;;6304012;28;19934;-85
2023/10/20 09:43:49;;;;;;;;;;;;;;;;;;6332284;28;20266;-84
2023/10/20 09:46:52;;;;;;;;;;;;;;;;;;6307072;28;20366;-85
2023/10/20 09:49:52;;;;;;;;;;;;;;;;;;6335293;28;19916;-86
2023/10/20 09:52:52;;;;;;;;;;;;;;;;;;6314910;28;19922;-85
2023/10/20 09:55:53;;;;;;;;;;;;;;;;;;6337091;28;19916;-85
2023/10/20 09:58:53;;;;;;;;;;;;;;;;;;6326949;28;20421;-88
2023/10/20 10:01:53;;;;;;;;;;;;;;;;;;6337305;28;20353;-88
2023/10/20 10:04:54;;;;;;;;;;;;;;;;;;6337084;28;20381;-88
2023/10/20 10:07:54;;;;;;;;;;;;;;;;;;6326372;28;19908;-88
2023/10/20 10:10:54;;;;;;;;;;;;;;;;;;6310735;28;19908;-88
2023/10/20 10:13:54;;;;;;;;;;;;;;;;;;6307719;28;19935;-88
2023/10/20 10:16:54;;;;;;;;;;;;;;;;;;6306949;28;20003;-88
2023/10/20 10:19:55;;;;;;;;;;;;;;;;;;6321627;28;19923;-89
2023/10/20 10:22:55;;;;;;;;;;;;;;;;;;6316755;28;19963;-89
2023/10/20 10:25:55;;;;;;;;;;;;;;;;;;6310561;28;19916;-89
2023/10/20 10:28:55;;;;;;;;;;;;;;;;;;6310996;28;19914;-89
2023/10/20 10:31:55;;;;;;;;;;;;;;;;;;6316920;28;19919;-89
2023/10/20 10:34:56;;;;;;;;;;;;;;;;;;6307524;28;20448;-88
2023/10/20 10:37:56;;;;;;;;;;;;;;;;;;6322380;28;19965;-89
2023/10/20 10:40:56;;;;;;;;;;;;;;;;;;6313668;28;19908;-88
2023/10/20 10:43:56;;;;;;;;;;;;;;;;;;6329644;28;20353;-88
2023/10/20 10:46:56;;;;;;;;;;;;;;;;;;6333798;28;19954;-88
2023/10/20 10:49:57;;;;;;;;;;;;;;;;;;6333350;27;20385;-89
2023/10/20 10:52:57;;;;;;;;;;;;;;;;;;6312659;28;19923;-88
2023/10/20 10:55:57;;;;;;;;;;;;;;;;;;6330685;28;19935;-89
2023/10/20 10:58:57;;;;;;;;;;;;;;;;;;6311803;28;19912;-88
2023/10/20 11:02:00;;;;;;;;;;;;;;;;;;6320900;28;19927;-89
2023/10/20 11:05:00;;;;;;;;;;;;;;;;;;6320640;28;20428;-89
2023/10/20 11:08:04;;;;;;;;;;;;;;;;;;6322878;27;19919;-89
2023/10/20 11:11:04;;;;;;;;;;;;;;;;;;6314294;28;19920;-89
2023/10/20 11:14:04;;;;;;;;;;;;;;;;;;6330335;28;19919;-89
2023/10/20 11:17:05;;;;;;;;;;;;;;;;;;6330131;28;20507;-89
2023/10/20 11:20:05;;;;;;;;;;;;;;;;;;6317377;28;19917;-89
2023/10/20 11:23:07;;;;;;;;;;;;;;;;;;6324932;28;20373;-89
2023/10/20 11:26:07;;;;;;;;;;;;;;;;;;6323475;28;19957;-89
2023/10/20 11:29:08;;;;;;;;;;;;;;;;;;6330494;27;20404;-89
2023/10/20 11:32:08;;;;;;;;;;;;;;;;;;6314822;28;19912;-89
2023/10/20 11:35:08;;;;;;;;;;;;;;;;;;6308309;28;19916;-89
2023/10/20 11:38:09;;;;;;;;;;;;;;;;;;6326018;28;20007;-89
2023/10/20 11:41:10;;;;;;;;;;;;;;;;;;6321795;28;19934;-89
2023/10/20 11:44:10;;;;;;;;;;;;;;;;;;6321037;28;20530;-89
2023/10/20 11:47:10;;;;;;;;;;;;;;;;;;6326062;28;19912;-89
2023/10/20 11:50:10;;;;;;;;;;;;;;;;;;6331660;28;20028;-89
2023/10/20 11:53:12;;;;;;;;;;;;;;;;;;6326251;28;19908;-89
2023/10/20 11:56:15;;;;;;;;;;;;;;;;;;6322266;28;20023;-89
2023/10/20 11:59:16;;;;;;;;;;;;;;;;;;6323396;28;19912;-86
2023/10/20 12:02:16;;;;;;;;;;;;;;;;;;6320299;28;19970;-85
2023/10/20 12:05:16;;;;;;;;;;;;;;;;;;6307839;28;19920;-85
2023/10/20 12:08:17;;;;;;;;;;;;;;;;;;6332410;28;19966;-86
2023/10/20 12:11:18;;;;;;;;;;;;;;;;;;6331386;28;20420;-85
2023/10/20 12:14:18;;;;;;;;;;;;;;;;;;6311551;28;19927;-86
2023/10/20 12:17:19;;;;;;;;;;;;;;;;;;6310908;28;19912;-90
2023/10/20 12:20:19;;;;;;;;;;;;;;;;;;6319921;28;19934;-90
2023/10/20 12:23:19;;;;;;;;;;;;;;;;;;6308321;28;19922;-90
2023/10/20 12:26:19;;;;;;;;;;;;;;;;;;6334204;28;19912;-91
2023/10/20 12:29:22;;;;;;;;;;;;;;;;;;6323092;27;20355;-90
2023/10/20 12:32:28;;;;;;;;;;;;;;;;;;6315878;28;19918;-90
2023/10/20 12:35:29;;;;;;;;;;;;;;;;;;6326822;28;20294;-89
2023/10/20 12:38:29;;;;;;;;;;;;;;;;;;6333475;28;19920;-89
2023/10/20 12:41:29;;;;;;;;;;;;;;;;;;6337501;27;19916;-89
2023/10/20 12:44:30;;;;;;;;;;;;;;;;;;6306345;28;21500;-89
2023/10/20 12:47:32;;;;;;;;;;;;;;;;;;6329319;28;19926;-88
2023/10/20 12:50:32;;;;;;;;;;;;;;;;;;6331687;28;19916;-89
2023/10/20 12:53:33;;;;;;;;;;;;;;;;;;6327007;28;19957;-89
2023/10/20 12:56:33;;;;;;;;;;;;;;;;;;6329307;28;20273;-89
2023/10/20 12:59:33;;;;;;;;;;;;;;;;;;6315006;28;19928;-89
2023/10/20 13:02:33;;;;;;;;;;;;;;;;;;6330781;28;20666;-89
2023/10/20 13:05:33;;;;;;;;;;;;;;;;;;6331264;28;19927;-89
2023/10/20 13:08:34;;;;;;;;;;;;;;;;;;6312563;28;19920;-86
2023/10/20 13:11:34;;;;;;;;;;;;;;;;;;6337692;28;20682;-86
2023/10/20 13:14:36;;;;;;;;;;;;;;;;;;6335202;28;19922;-85
2023/10/20 13:17:36;;;;;;;;;;;;;;;;;;6314171;28;20327;-86
2023/10/20 13:20:37;;;;;;;;;;;;;;;;;;6304179;28;19912;-86
2023/10/20 13:23:37;;;;;;;;;;;;;;;;;;6307426;28;19911;-86
2023/10/20 13:26:37;;;;;;;;;;;;;;;;;;6303068;28;19918;-89
2023/10/20 13:29:38;;;;;;;;;;;;;;;;;;6325659;28;19912;-89
2023/10/20 13:32:38;;;;;;;;;;;;;;;;;;6320158;28;19924;-89
2023/10/20 13:35:40;;;;;;;;;;;;;;;;;;6331488;28;19916;-89
2023/10/20 13:38:41;;;;;;;;;;;;;;;;;;6315303;28;19955;-89
2023/10/20 13:41:41;;;;;;;;;;;;;;;;;;6307375;28;19918;-88
2023/10/20 13:44:42;;;;;;;;;;;;;;;;;;6327857;28;20255;-87
2023/10/20 13:47:42;;;;;;;;;;;;;;;;;;6328064;28;20001;-89
2023/10/20 13:50:42;;;;;;;;;;;;;;;;;;6326647;28;20027;-89
2023/10/20 13:53:42;;;;;;;;;;;;;;;;;;6329720;28;20277;-88
2023/10/20 13:56:42;;;;;;;;;;;;;;;;;;6312362;28;20274;-89
2023/10/20 13:59:42;;;;;;;;;;;;;;;;;;6334925;28;20340;-88
2023/10/20 14:02:42;;;;;;;;;;;;;;;;;;6331122;28;19915;-89
2023/10/20 14:05:43;;;;;;;;;;;;;;;;;;6326587;28;19923;-89
2023/10/20 14:08:43;;;;;;;;;;;;;;;;;;6330906;28;20011;-89
2023/10/20 14:11:44;;;;;;;;;;;;;;;;;;6335540;28;19916;-89
2023/10/20 14:14:45;;;;;;;;;;;;;;;;;;6332426;28;20344;-89
2023/10/20 14:17:45;;;;;;;;;;;;;;;;;;6315246;28;19916;-89
2023/10/20 14:20:45;;;;;;;;;;;;;;;;;;6323118;28;19931;-88
2023/10/20 14:23:45;;;;;;;;;;;;;;;;;;6337210;28;21107;-89
2023/10/20 14:26:45;;;;;;;;;;;;;;;;;;6318932;27;19923;-89
2023/10/20 14:29:45;;;;;;;;;;;;;;;;;;6316364;28;19911;-89
2023/10/20 14:32:45;;;;;;;;;;;;;;;;;;6319610;28;20022;-89
2023/10/20 14:35:46;;;;;;;;;;;;;;;;;;6309581;28;19938;-90
2023/10/20 14:38:46;;;;;;;;;;;;;;;;;;6320183;28;19915;-85
2023/10/20 14:41:46;;;;;;;;;;;;;;;;;;6343107;28;20015;-85
2023/10/20 14:44:46;;;;;;;;;;;;;;;;;;6336445;27;19962;-85
2023/10/20 14:47:46;;;;;;;;;;;;;;;;;;6327000;28;19912;-85
2023/10/20 14:50:46;;;;;;;;;;;;;;;;;;6309067;28;19912;-85
2023/10/20 14:53:46;;;;;;;;;;;;;;;;;;6325568;28;19983;-85
2023/10/20 14:56:47;;;;;;;;;;;;;;;;;;6321137;28;19938;-86
2023/10/20 14:59:47;;;;;;;;;;;;;;;;;;6329443;28;19926;-85
2023/10/20 15:02:48;;;;;;;;;;;;;;;;;;6329667;28;19915;-85
2023/10/20 15:05:48;;;;;;;;;;;;;;;;;;6343475;28;19908;-86
2023/10/20 15:08:48;;;;;;;;;;;;;;;;;;6308040;28;20402;-85
2023/10/20 15:11:48;;;;;;;;;;;;;;;;;;6330956;28;19961;-85
2023/10/20 15:14:49;;;;;;;;;;;;;;;;;;6307783;28;19916;-85
2023/10/20 15:17:49;;;;;;;;;;;;;;;;;;6335156;28;20395;-86
2023/10/20 15:20:49;;;;;;;;;;;;;;;;;;6316594;28;19911;-85
2023/10/20 15:23:50;;;;;;;;;;;;;;;;;;6314614;28;19989;-86
2023/10/20 15:26:50;;;;;;;;;;;;;;;;;;6324237;27;19958;-86
2023/10/20 15:29:50;;;;;;;;;;;;;;;;;;6324329;28;20366;-86
2023/10/20 15:32:50;;;;;;;;;;;;;;;;;;6324143;28;19916;-86
2023/10/20 15:35:50;;;;;;;;;;;;;;;;;;6309139;28;19912;-86
2023/10/20 15:38:51;;;;;;;;;;;;;;;;;;6310939;28;20026;-86
2023/10/20 15:41:51;;;;;;;;;;;;;;;;;;6329748;28;19915;-86
2023/10/20 15:44:51;;;;;;;;;;;;;;;;;;6331518;28;19916;-86
2023/10/20 15:47:51;;;;;;;;;;;;;;;;;;6312654;28;19912;-86
2023/10/20 15:50:51;;;;;;;;;;;;;;;;;;6314022;28;20065;-86
2023/10/20 15:53:51;;;;;;;;;;;;;;;;;;6336816;28;19938;-86
2023/10/20 15:56:51;;;;;;;;;;;;;;;;;;6336452;28;19908;-86
2023/10/20 15:59:52;;;;;;;;;;;;;;;;;;6330684;28;19995;-86
2023/10/20 16:02:52;;;;;;;;;;;;;;;;;;6309259;28;19918;-87
2023/10/20 16:05:52;;;;;;;;;;;;;;;;;;6312140;28;20003;-86
2023/10/20 16:08:53;;;;;;;;;;;;;;;;;;6328125;28;19916;-86
2023/10/20 16:11:53;;;;;;;;;;;;;;;;;;6304113;28;20023;-86
2023/10/20 16:14:53;;;;;;;;;;;;;;;;;;6321568;28;20387;-86
2023/10/20 16:17:54;;;;;;;;;;;;;;;;;;6326657;28;19916;-87
2023/10/20 16:21:01;;;;;;;;;;;;;;;;;;6304114;28;19915;-87
2023/10/20 16:24:01;;;;;;;;;;;;;;;;;;6332552;28;19922;-86
2023/10/20 16:27:01;;;;;;;;;;;;;;;;;;6334195;28;19915;-88
2023/10/20 16:30:03;;;;;;;;;;;;;;;;;;6306786;27;20324;-87
2023/10/20 16:33:03;;;;;;;;;;;;;;;;;;6325683;28;20047;-88
2023/10/20 16:36:03;;;;;;;;;;;;;;;;;;6310598;28;20004;-87
2023/10/20 16:39:04;;;;;;;;;;;;;;;;;;6314732;28;20003;-90
2023/10/20 16:42:04;;;;;;;;;;;;;;;;;;6314169;27;21053;-90
2023/10/20 16:45:06;;;;;;;;;;;;;;;;;;6305472;27;19924;-90
2023/10/20 16:48:07;;;;;;;;;;;;;;;;;;6313465;28;19919;-90
2023/10/20 16:51:07;;;;;;;;;;;;;;;;;;6313260;28;19965;-89
2023/10/20 16:54:07;;;;;;;;;;;;;;;;;;6315344;27;19912;-89
2023/10/20 16:57:07;;;;;;;;;;;;;;;;;;6303988;28;20322;-90
2023/10/20 17:00:07;;;;;;;;;;;;;;;;;;6336136;27;19926;-89
2023/10/20 17:03:07;;;;;;;;;;;;;;;;;;6329630;28;19916;-90
2023/10/20 17:06:07;;;;;;;;;;;;;;;;;;6311410;28;19961;-90
2023/10/20 17:09:08;;;;;;;;;;;;;;;;;;6302160;28;19909;-90
2023/10/20 17:12:08;;;;;;;;;;;;;;;;;;6312550;28;20025;-90
2023/10/20 17:15:08;;;;;;;;;;;;;;;;;;6304565;28;20321;-90
2023/10/20 17:18:08;;;;;;;;;;;;;;;;;;6333477;28;20351;-90
2023/10/20 17:21:08;;;;;;;;;;;;;;;;;;6330685;28;20083;-90
2023/10/20 17:24:10;;;;;;;;;;;;;;;;;;6320469;28;19923;-90
2023/10/20 17:27:10;;;;;;;;;;;;;;;;;;6320349;28;19916;-91
2023/10/20 17:30:10;;;;;;;;;;;;;;;;;;6324963;28;20286;-90
2023/10/20 17:33:10;;;;;;;;;;;;;;;;;;6325847;28;20858;-90
2023/10/20 17:36:10;;;;;;;;;;;;;;;;;;6310001;28;20126;-90
2023/10/20 17:39:10;;;;;;;;;;;;;;;;;;6300737;28;19957;-90
2023/10/20 17:42:11;;;;;;;;;;;;;;;;;;6309093;28;19920;-90
2023/10/20 17:45:11;;;;;;;;;;;;;;;;;;6334387;28;19922;-90
2023/10/20 17:48:11;;;;;;;;;;;;;;;;;;6314667;28;19965;-90
2023/10/20 17:51:12;;;;;;;;;;;;;;;;;;6304144;28;19916;-90
2023/10/20 17:54:12;;;;;;;;;;;;;;;;;;6321292;28;19912;-89
2023/10/20 17:57:13;;;;;;;;;;;;;;;;;;6304052;28;19973;-90
2023/10/20 18:00:13;;;;;;;;;;;;;;;;;;6246252;28;1897391;-90
2023/10/20 18:03:13;;;;;;;;;;;;;;;;;;6309038;28;19912;-90
2023/10/20 18:06:13;;;;;;;;;;;;;;;;;;6335157;28;19923;-90
2023/10/20 18:09:15;;;;;;;;;;;;;;;;;;6313137;28;19918;-89
2023/10/20 18:12:15;;;;;;;;;;;;;;;;;;6330247;28;19931;-88
2023/10/20 18:15:15;;;;;;;;;;;;;;;;;;6308271;28;20343;-88
2023/10/20 18:18:15;;;;;;;;;;;;;;;;;;6329973;28;19912;-88
2023/10/20 18:21:15;;;;;;;;;;;;;;;;;;6324274;28;19914;-88
2023/10/20 18:24:15;;;;;;;;;;;;;;;;;;6303978;28;20033;-88
2023/10/20 18:27:17;;;;;;;;;;;;;;;;;;6311759;28;19923;-88
2023/10/20 18:30:17;;;;;;;;;;;;;;;;;;6326941;28;19920;-88
2023/10/20 18:33:17;;;;;;;;;;;;;;;;;;6308067;28;19923;-88
2023/10/20 18:36:17;;;;;;;;;;;;;;;;;;6313376;28;19920;-88
2023/10/20 18:39:18;;;;;;;;;;;;;;;;;;6313851;28;19920;-88
2023/10/20 18:42:18;;;;;;;;;;;;;;;;;;6322791;28;20398;-88
2023/10/20 18:45:18;;;;;;;;;;;;;;;;;;6337681;28;20014;-88
2023/10/20 18:48:18;;;;;;;;;;;;;;;;;;6313000;28;20053;-88
2023/10/20 18:51:18;;;;;;;;;;;;;;;;;;6328023;28;20331;-88
2023/10/20 18:54:18;;;;;;;;;;;;;;;;;;6326546;27;19922;-88
2023/10/20 18:57:18;;;;;;;;;;;;;;;;;;6302636;28;19916;-88
2023/10/20 19:00:19;;;;;;;;;;;;;;;;;;6318614;28;19984;-88
2023/10/20 19:03:19;;;;;;;;;;;;;;;;;;6325567;28;19920;-88
2023/10/20 19:06:19;;;;;;;;;;;;;;;;;;6310685;28;20560;-88
2023/10/20 19:09:20;;;;;;;;;;;;;;;;;;6316546;28;20500;-88
2023/10/20 19:12:20;;;;;;;;;;;;;;;;;;6325315;28;19959;-88
2023/10/20 19:15:20;;;;;;;;;;;;;;;;;;6314945;28;20409;-88
2023/10/20 19:18:20;;;;;;;;;;;;;;;;;;6320707;28;19912;-87
2023/10/20 19:21:21;;;;;;;;;;;;;;;;;;6306501;28;19908;-86
2023/10/20 19:24:22;;;;;;;;;;;;;;;;;;6316809;28;19912;-88
2023/10/20 19:27:22;;;;;;;;;;;;;;;;;;6318443;27;19924;-87
2023/10/20 19:30:22;;;;;;;;;;;;;;;;;;6312326;28;20349;-87
2023/10/20 19:33:23;;;;;;;;;;;;;;;;;;6314409;28;19916;-87
2023/10/20 19:36:23;;;;;;;;;;;;;;;;;;6319314;28;19927;-88
2023/10/20 19:39:23;;;;;;;;;;;;;;;;;;6321967;28;19920;-87
2023/10/20 19:42:24;;;;;;;;;;;;;;;;;;6337743;28;19916;-87
2023/10/20 19:45:24;;;;;;;;;;;;;;;;;;6329055;28;19920;-87
2023/10/20 19:48:24;;;;;;;;;;;;;;;;;;6335307;28;19916;-87
2023/10/20 19:51:25;;;;;;;;;;;;;;;;;;6309213;28;19923;-87
2023/10/20 19:54:25;;;;;;;;;;;;;;;;;;6315002;28;19912;-86
2023/10/20 19:57:25;;;;;;;;;;;;;;;;;;6313924;28;19957;-87
2023/10/20 20:00:25;;;;;;;;;;;;;;;;;;6319310;28;19920;-86
2023/10/20 20:03:26;;;;;;;;;;;;;;;;;;6323281;28;19924;-87
2023/10/20 20:06:26;;;;;;;;;;;;;;;;;;6310659;28;19928;-86
2023/10/20 20:09:26;;;;;;;;;;;;;;;;;;6323057;28;19916;-89
2023/10/20 20:12:26;;;;;;;;;;;;;;;;;;6329292;28;19908;-88
2023/10/20 20:15:26;;;;;;;;;;;;;;;;;;6333310;28;19907;-89
2023/10/20 20:18:27;;;;;;;;;;;;;;;;;;6341476;28;19896;-89
2023/10/20 20:21:27;;;;;;;;;;;;;;;;;;6342056;28;20003;-87
2023/10/20 20:24:27;;;;;;;;;;;;;;;;;;6341390;28;19923;-89
2023/10/20 20:27:27;;;;;;;;;;;;;;;;;;6326856;27;19908;-89
2023/10/20 20:30:27;;;;;;;;;;;;;;;;;;6317526;28;19923;-88
2023/10/20 20:33:27;;;;;;;;;;;;;;;;;;6323043;28;19908;-89
2023/10/20 20:36:27;;;;;;;;;;;;;;;;;;6332472;28;19907;-89
2023/10/20 20:39:28;;;;;;;;;;;;;;;;;;6316653;28;19975;-89
2023/10/20 20:42:28;;;;;;;;;;;;;;;;;;6334846;28;19935;-88
2023/10/20 20:45:28;;;;;;;;;;;;;;;;;;6352616;28;19912;-89
2023/10/20 20:48:30;;;;;;;;;;;;;;;;;;6348075;28;19918;-89
2023/10/20 20:51:30;;;;;;;;;;;;;;;;;;6322427;28;19969;-88
2023/10/20 20:54:33;;;;;;;;;;;;;;;;;;6341185;28;19919;-90
2023/10/20 20:57:33;;;;;;;;;;;;;;;;;;6332221;27;20358;-89
2023/10/20 21:00:33;;;;;;;;;;;;;;;;;;6331254;28;19928;-89